Two Hills, Canada
Current Conditions -  °F | °C
As of 11:50 PM on Wednesday 26 Nov 2014 (Local Time) from CYED Reporting Station
Overcast Overcast  
Wind Chill: -17°   Ceiling: 1200
Heat Index: -11°   Visibility: 5mi
Dew Point: -12°   Wind: 7mph
Humidity: 92%   Direction: 20°NNE
Pressure: 30.08"   Gusts: NA
Location:  53.72°N, 111.75°W
Report Text: CYED 270650Z AUTO 02006KT 5SM FEW003 BKN012 OVC026 OVC041 M11/M12 A3008
Loading
Personal Weather Stations






























Interactive Weather Map New forecast layout! Learn more

10-Day Weather Forecast

Advertisements
Track Severe Weather on mobile